Portada
METAR-TAF:

METAR-TAF

Aeroports :

Malaca, Malàisia

latitud: 02-16N, longitud: 102-15E, altitud: 11 m

Observació

L'informe es va fer fa 35 minuts, a les 21:00 UTC
Vent 5 kt amb direcció variable
Temperatura 25°C
Humitat 79%
Pressió 1010 hPa
Visibilitat 10 km o més
Escasses núvols a una alçada de 2700 ft

METAR: WMKM 112100Z VRB05KT 9999 FEW027 25/21 Q1010

Hora: 05:35 (21:35 UTC)

Pronòstic

L'informe es va fer fa 4 hores i 35 minuts, a les 17:00 UTC
Pronòstic vàlid del 11 a les 18 UTC al 12 a les 18 UTC
Vent 7 kt del Nord-Est
Visibilitat 10 km o més
Escasses núvols a una alçada de 3000 ft
Temporalment
l' 12 a les 04 UTC al 12 a les 08 UTC
Vent 10 kt del Nord-Est amb ràfegues de 20 kt
Escasses núvols a una alçada de 1700 ft, Cumulonimbus.

TAF: WMKM 111700Z 1118/1218 04007KT 9999 FEW030 TEMPO 1204/1208 05010G20KT FEW017CB

Observacions i pronòstics meteorològics de més de 4000 aeroports (METAR i TAF).

Les estacions disponibles són els punts grocs i vermells al mapa.

Posi el ratolí al punt desitjat per veure el nom de l'estació.

Feu clic per veure les observacions i els pronòstics meteorològics.

Per canviar el mapa: feu clic els botons verds amb una creu de color negre per apropar; al botó verd amb un guió per allunyar la imatge; o en les fletxes verdes per a mapes adjacents.


METAR-TAF: